Time;durP1;ratioP1;P1;durP2;ratioP2;P2;SDS_P1;SDS_P2;PMS_P1;PMS_P2;Temp;Humidity;BMP_temperature;BMP_pressure;BME280_temperature;BME280_humidity;BME280_pressure;Samples;Min_cycle;Max_cycle;Signal;HPM_P1;HPM_P2
2024/04/21 00:01:36;;;;;;;0.10;0.10;;;4.80;99.90;;;;;;5240645;27;20594;-64
2024/04/21 00:04:01;;;;;;;0.40;0.20;;;4.80;99.90;;;;;;5239155;27;20291;-64
2024/04/21 00:06:27;;;;;;;0.20;0.20;;;4.80;99.90;;;;;;5241269;27;20785;-64
2024/04/21 00:08:52;;;;;;;0.10;0.10;;;4.80;99.90;;;;;;5241183;27;20343;-65
2024/04/21 00:11:18;;;;;;;0.10;0.10;;;4.70;99.90;;;;;;5240386;27;20721;-63
2024/04/21 00:13:43;;;;;;;0.40;0.30;;;4.60;99.90;;;;;;5241198;27;20730;-62
2024/04/21 00:16:09;;;;;;;3.40;0.40;;;4.50;99.90;;;;;;5227324;27;20233;-65
2024/04/21 00:18:35;;;;;;;0.17;0.17;;;4.50;99.90;;;;;;5240929;27;20234;-64
2024/04/21 00:21:00;;;;;;;0.33;0.33;;;4.50;99.90;;;;;;5226820;27;20272;-65
2024/04/21 00:23:26;;;;;;;0.20;0.20;;;4.50;99.90;;;;;;5241281;27;20301;-63
2024/04/21 00:26:00;;;;;;;0.20;0.20;;;4.40;99.90;;;;;;5240033;27;20622;-64
2024/04/21 00:28:28;;;;;;;5.10;0.37;;;4.30;99.90;;;;;;5241022;27;20717;-63
2024/04/21 00:30:54;;;;;;;0.53;0.40;;;4.30;99.90;;;;;;5226379;27;20731;-63
2024/04/21 00:33:19;;;;;;;3.20;0.70;;;4.30;99.90;;;;;;5240955;27;20344;-65
2024/04/21 00:35:45;;;;;;;0.10;0.10;;;4.30;99.90;;;;;;5241028;27;20241;-64
2024/04/21 00:38:11;;;;;;;0.30;0.30;;;4.30;99.90;;;;;;5222926;27;20727;-63
2024/04/21 00:40:36;;;;;;;0.37;0.30;;;4.30;99.90;;;;;;5230469;27;20582;-63
2024/04/21 00:43:02;;;;;;;0.20;0.20;;;4.30;99.90;;;;;;5240688;27;20439;-64
2024/04/21 00:45:28;;;;;;;0.30;0.30;;;4.20;99.90;;;;;;5240910;27;20343;-64
2024/04/21 00:47:55;;;;;;;0.20;0.20;;;4.20;99.90;;;;;;5240640;27;20696;-64
2024/04/21 00:50:21;;;;;;;2.83;1.23;;;4.20;99.90;;;;;;5226773;27;20246;-64
2024/04/21 00:52:48;;;;;;;0.20;0.20;;;4.10;99.90;;;;;;5240663;27;20238;-64
2024/04/21 00:55:14;;;;;;;2.13;0.53;;;4.10;99.90;;;;;;5240318;27;20237;-64
2024/04/21 00:57:40;;;;;;;0.27;0.27;;;4.10;99.90;;;;;;5240834;27;20276;-62
2024/04/21 01:00:09;;;;;;;0.40;0.30;;;4.10;99.90;;;;;;5239605;27;20281;-63
2024/04/21 01:02:34;;;;;;;0.50;0.50;;;4.10;99.90;;;;;;5240601;27;20280;-63
2024/04/21 01:05:01;;;;;;;0.20;0.20;;;4.10;99.90;;;;;;5240440;27;20249;-63
2024/04/21 01:07:27;;;;;;;0.20;0.20;;;4.10;99.90;;;;;;5240142;27;20238;-63
2024/04/21 01:09:52;;;;;;;0.40;0.40;;;4.10;99.90;;;;;;5239616;27;20335;-62
2024/04/21 01:12:18;;;;;;;0.20;0.20;;;4.00;99.90;;;;;;5240217;27;20241;-58
2024/04/21 01:14:43;;;;;;;3.00;0.57;;;4.00;99.90;;;;;;5239173;27;20301;-63
2024/04/21 01:17:09;;;;;;;0.20;0.20;;;4.00;99.90;;;;;;5240010;27;20348;-63
2024/04/21 01:19:34;;;;;;;0.23;0.23;;;4.10;99.90;;;;;;5226755;27;20257;-63
2024/04/21 01:22:00;;;;;;;0.30;0.30;;;4.10;99.90;;;;;;5237773;27;20709;-61
2024/04/21 01:24:26;;;;;;;4.10;0.60;;;4.10;99.90;;;;;;5240245;27;20280;-63
2024/04/21 01:26:51;;;;;;;0.20;0.20;;;4.00;99.90;;;;;;5240233;27;20281;-62
2024/04/21 01:29:17;;;;;;;2.20;0.83;;;4.10;99.90;;;;;;5224250;27;20829;-63
2024/04/21 01:31:43;;;;;;;0.87;0.40;;;4.10;99.90;;;;;;5239697;27;20234;-62
2024/04/21 01:34:09;;;;;;;0.47;0.40;;;4.10;99.90;;;;;;5226193;27;20352;-63
2024/04/21 01:36:34;;;;;;;0.50;0.47;;;4.20;99.90;;;;;;5230355;27;20230;-62
2024/04/21 01:39:00;;;;;;;1.63;0.50;;;4.10;99.90;;;;;;5235262;27;20352;-63
2024/04/21 01:41:26;;;;;;;0.93;0.80;;;4.00;99.90;;;;;;5239198;27;20242;-62
2024/04/21 01:43:51;;;;;;;2.10;0.50;;;4.00;99.90;;;;;;5240020;27;20846;-63
2024/04/21 01:46:17;;;;;;;0.90;0.80;;;4.00;99.90;;;;;;5239953;27;20690;-62
2024/04/21 01:48:42;;;;;;;0.20;0.20;;;3.90;99.90;;;;;;5239661;27;20275;-63
2024/04/21 01:51:08;;;;;;;0.30;0.30;;;3.90;99.90;;;;;;5223887;27;20234;-63
2024/04/21 01:53:35;;;;;;;2.10;0.70;;;3.90;99.90;;;;;;5240075;27;20237;-63
2024/04/21 01:56:01;;;;;;;0.40;0.40;;;3.80;99.90;;;;;;5239474;27;20241;-63
2024/04/21 01:58:26;;;;;;;0.33;0.33;;;3.80;99.90;;;;;;5265751;27;20285;-62
2024/04/21 02:00:52;;;;;;;0.50;0.50;;;3.80;99.90;;;;;;5225877;27;20862;-63
2024/04/21 02:03:17;;;;;;;0.30;0.30;;;3.80;99.90;;;;;;5238743;27;20772;-63
2024/04/21 02:05:43;;;;;;;1.83;0.50;;;3.70;99.90;;;;;;5239543;27;20230;-63
2024/04/21 02:08:08;;;;;;;0.80;0.50;;;3.80;99.90;;;;;;5239348;27;20241;-63
2024/04/21 02:10:34;;;;;;;0.40;0.40;;;3.70;99.90;;;;;;5238872;27;20718;-63
2024/04/21 02:13:00;;;;;;;0.37;0.27;;;3.70;99.90;;;;;;5239749;27;20234;-63
2024/04/21 02:15:25;;;;;;;0.77;0.60;;;3.80;99.90;;;;;;5239650;27;20721;-63
2024/04/21 02:17:51;;;;;;;0.77;0.60;;;3.90;99.90;;;;;;5239155;27;20233;-63
2024/04/21 02:20:16;;;;;;;0.20;0.20;;;3.80;99.90;;;;;;5238859;27;20770;-63
2024/04/21 02:22:42;;;;;;;1.17;0.40;;;3.80;99.90;;;;;;5239619;27;20276;-63
2024/04/21 02:25:08;;;;;;;0.30;0.30;;;3.80;99.90;;;;;;5239144;27;20380;-63
2024/04/21 02:27:33;;;;;;;0.43;0.40;;;3.80;99.90;;;;;;5239380;27;20577;-62
2024/04/21 02:29:59;;;;;;;3.20;0.80;;;3.80;99.90;;;;;;5238264;27;20360;-63
2024/04/21 02:32:24;;;;;;;5.90;1.27;;;3.80;99.90;;;;;;5239224;27;20241;-63
2024/04/21 02:34:50;;;;;;;0.50;0.50;;;3.80;99.90;;;;;;5239241;27;20241;-63
2024/04/21 02:37:15;;;;;;;0.93;0.47;;;3.80;99.90;;;;;;5238806;27;20258;-63
2024/04/21 02:39:41;;;;;;;0.60;0.60;;;3.70;99.90;;;;;;5265267;27;20258;-62
2024/04/21 02:42:06;;;;;;;0.63;0.63;;;3.70;99.90;;;;;;5237889;27;20241;-62
2024/04/21 02:44:32;;;;;;;0.73;0.37;;;3.70;99.90;;;;;;5225303;27;20708;-63
2024/04/21 02:46:57;;;;;;;0.40;0.40;;;3.70;99.90;;;;;;5251261;27;20241;-63
2024/04/21 02:49:23;;;;;;;0.40;0.40;;;3.60;99.90;;;;;;5234443;27;20243;-63
2024/04/21 02:51:48;;;;;;;3.70;0.47;;;3.60;99.90;;;;;;5234513;27;20233;-63
2024/04/21 02:54:14;;;;;;;3.53;0.77;;;3.60;99.90;;;;;;5237717;27;20237;-62
2024/04/21 02:56:40;;;;;;;0.27;0.27;;;3.60;99.90;;;;;;5232836;27;20336;-63
2024/04/21 02:59:05;;;;;;;0.30;0.30;;;3.60;99.90;;;;;;5241856;27;20241;-63
2024/04/21 03:01:31;;;;;;;3.80;0.67;;;3.60;99.90;;;;;;5241307;27;20234;-63
2024/04/21 03:03:57;;;;;;;1.20;0.83;;;3.60;99.90;;;;;;5241876;27;20238;-63
2024/04/21 03:06:22;;;;;;;0.60;0.60;;;3.50;99.90;;;;;;5242229;27;20234;-64
2024/04/21 03:08:48;;;;;;;0.57;0.53;;;3.50;99.90;;;;;;5241912;27;20330;-64
2024/04/21 03:11:13;;;;;;;0.43;0.30;;;3.50;99.90;;;;;;5227416;27;20345;-64
2024/04/21 03:13:39;;;;;;;0.60;0.37;;;3.40;99.90;;;;;;5242104;27;20804;-63
2024/04/21 03:16:05;;;;;;;3.00;0.63;;;3.40;99.90;;;;;;5241679;27;20230;-63
2024/04/21 03:18:30;;;;;;;0.30;0.30;;;3.40;99.90;;;;;;5241581;27;20332;-62
2024/04/21 03:20:59;;;;;;;0.50;0.50;;;3.30;99.90;;;;;;5241397;27;20711;-63
2024/04/21 03:23:25;;;;;;;0.30;0.30;;;3.30;99.90;;;;;;5235071;27;20239;-63
2024/04/21 03:25:51;;;;;;;0.30;0.30;;;3.20;99.90;;;;;;5235184;27;20238;-63
2024/04/21 03:28:17;;;;;;;0.50;0.50;;;3.20;99.90;;;;;;5241466;27;20233;-63
2024/04/21 03:31:01;;;;;;;0.30;0.30;;;3.00;99.90;;;;;;5241044;27;20288;-64
2024/04/21 03:33:27;;;;;;;0.53;0.43;;;3.00;99.90;;;;;;5227995;27;20230;-63
2024/04/21 03:36:07;;;;;;;0.20;0.20;;;3.00;99.90;;;;;;5241648;27;20275;-63
2024/04/21 03:38:33;;;;;;;3.43;0.33;;;3.00;99.90;;;;;;5241598;27;20234;-63
2024/04/21 03:40:59;;;;;;;0.23;0.23;;;2.90;99.90;;;;;;5240696;27;20590;-64
2024/04/21 03:43:24;;;;;;;0.60;0.60;;;2.80;99.90;;;;;;5241741;27;20276;-62
2024/04/21 03:45:50;;;;;;;0.33;0.30;;;2.90;99.90;;;;;;5241650;27;20264;-64
2024/04/21 03:48:16;;;;;;;0.30;0.30;;;2.90;99.90;;;;;;5240983;27;20246;-63
2024/04/21 03:50:41;;;;;;;0.60;0.50;;;2.90;99.90;;;;;;5240758;27;20233;-64
2024/04/21 03:53:13;;;;;;;0.73;0.43;;;2.80;99.90;;;;;;5241382;27;20250;-64
2024/04/21 03:55:38;;;;;;;0.47;0.43;;;2.80;99.90;;;;;;5241364;27;20276;-63
2024/04/21 03:58:04;;;;;;;0.20;0.20;;;2.70;99.90;;;;;;5241326;27;20238;-64
2024/04/21 04:00:32;;;;;;;0.20;0.20;;;2.70;99.90;;;;;;5226679;27;20268;-64
2024/04/21 04:02:58;;;;;;;0.23;0.17;;;2.70;99.90;;;;;;5240887;27;20241;-64
2024/04/21 04:05:24;;;;;;;0.20;0.20;;;2.80;99.90;;;;;;5241453;27;20234;-64
2024/04/21 04:07:49;;;;;;;0.23;0.23;;;2.70;99.90;;;;;;5239594;27;20237;-64
2024/04/21 04:10:15;;;;;;;0.73;0.40;;;2.80;99.90;;;;;;5226651;27;20289;-64
2024/04/21 04:12:42;;;;;;;12.27;0.43;;;2.70;99.90;;;;;;5240304;27;20335;-64
2024/04/21 04:15:13;;;;;;;0.30;0.30;;;2.70;99.90;;;;;;5240999;27;20294;-64
2024/04/21 04:17:39;;;;;;;1.30;0.93;;;2.70;99.90;;;;;;5241152;27;20234;-64
2024/04/21 04:20:12;;;;;;;0.77;0.60;;;2.70;99.90;;;;;;5238393;27;20234;-62
2024/04/21 04:22:37;;;;;;;5.97;1.00;;;2.70;99.90;;;;;;5231218;27;20238;-63
2024/04/21 04:25:03;;;;;;;0.60;0.50;;;2.80;99.90;;;;;;5227637;27;20333;-63
2024/04/21 04:27:29;;;;;;;0.60;0.60;;;2.80;99.90;;;;;;5227688;27;20726;-63
2024/04/21 04:29:55;;;;;;;0.40;0.40;;;2.80;99.90;;;;;;5240534;27;20283;-63
2024/04/21 04:32:21;;;;;;;0.70;0.50;;;2.90;99.90;;;;;;5240852;27;20285;-63
2024/04/21 04:34:48;;;;;;;0.20;0.20;;;2.80;99.90;;;;;;5241231;27;20237;-64
2024/04/21 04:37:13;;;;;;;1.17;0.30;;;2.90;99.90;;;;;;5240577;27;20300;-64
2024/04/21 04:39:39;;;;;;;0.37;0.37;;;2.80;99.90;;;;;;5239262;27;20719;-64
2024/04/21 04:42:05;;;;;;;0.43;0.43;;;2.80;99.90;;;;;;5235234;27;20659;-64
2024/04/21 04:44:31;;;;;;;0.40;0.40;;;2.70;99.90;;;;;;5227630;27;20280;-64
2024/04/21 04:46:57;;;;;;;0.40;0.30;;;2.70;99.90;;;;;;5239076;27;20686;-64
2024/04/21 04:49:22;;;;;;;0.23;0.23;;;2.80;99.90;;;;;;5225497;27;20314;-64
2024/04/21 04:51:48;;;;;;;0.77;0.77;;;2.80;99.90;;;;;;5239266;27;20241;-64
2024/04/21 04:54:14;;;;;;;0.10;0.10;;;2.70;99.90;;;;;;5224458;27;20719;-64
2024/04/21 04:56:40;;;;;;;0.10;0.10;;;2.70;99.90;;;;;;5226149;27;20277;-64
2024/04/21 04:59:06;;;;;;;0.40;0.37;;;2.70;99.90;;;;;;5239572;27;20250;-64
2024/04/21 05:01:31;;;;;;;4.33;0.70;;;2.60;99.90;;;;;;5257282;27;20246;-64
2024/04/21 05:03:57;;;;;;;0.50;0.50;;;2.60;99.90;;;;;;5234030;27;20234;-65
2024/04/21 05:06:23;;;;;;;0.40;0.40;;;2.60;99.90;;;;;;5239916;27;20752;-64
2024/04/21 05:08:49;;;;;;;0.40;0.37;;;2.60;99.90;;;;;;5239774;27;20301;-64
2024/04/21 05:11:14;;;;;;;0.40;0.40;;;2.70;99.90;;;;;;5238398;27;20280;-64
2024/04/21 05:13:40;;;;;;;0.67;0.60;;;2.70;99.90;;;;;;5239405;27;20344;-63
2024/04/21 05:16:05;;;;;;;0.27;0.27;;;2.80;99.90;;;;;;5239588;27;20710;-64
2024/04/21 05:18:31;;;;;;;1.23;0.20;;;2.80;99.90;;;;;;5225599;27;20754;-63
2024/04/21 05:20:57;;;;;;;0.10;0.10;;;2.80;99.90;;;;;;5225303;27;20250;-63
2024/04/21 05:23:22;;;;;;;4.13;0.63;;;2.90;99.90;;;;;;5225873;27;20277;-63
2024/04/21 05:25:49;;;;;;;0.93;0.60;;;2.90;99.90;;;;;;5239309;27;20284;-63
2024/04/21 05:28:15;;;;;;;0.90;0.90;;;2.90;99.90;;;;;;5225208;27;20280;-63
2024/04/21 05:30:41;;;;;;;1.00;0.93;;;2.90;99.90;;;;;;5238448;27;20233;-63
2024/04/21 05:33:06;;;;;;;0.47;0.47;;;2.90;99.90;;;;;;5236922;27;20333;-63
2024/04/21 05:35:32;;;;;;;0.30;0.30;;;2.90;99.90;;;;;;5227835;27;20284;-63
2024/04/21 05:37:58;;;;;;;2.10;1.03;;;2.90;99.90;;;;;;5225154;27;20244;-63
2024/04/21 05:40:23;;;;;;;0.50;0.50;;;2.90;99.90;;;;;;5238092;27;20305;-63
2024/04/21 05:42:49;;;;;;;0.60;0.27;;;2.80;99.90;;;;;;5239205;27;20293;-62
2024/04/21 05:45:15;;;;;;;0.60;0.50;;;2.90;99.90;;;;;;5238855;27;20678;-63
2024/04/21 05:47:40;;;;;;;1.13;0.50;;;3.00;99.90;;;;;;5238455;27;20694;-63
2024/04/21 05:50:07;;;;;;;2.00;0.93;;;3.00;99.90;;;;;;5238197;27;20233;-63
2024/04/21 05:52:33;;;;;;;0.30;0.30;;;3.10;99.90;;;;;;5238782;27;20298;-63
2024/04/21 05:54:58;;;;;;;1.37;1.27;;;3.20;99.90;;;;;;5224679;27;20601;-62
2024/04/21 05:57:24;;;;;;;1.87;1.10;;;3.20;99.90;;;;;;5238864;27;20722;-61
2024/04/21 05:59:50;;;;;;;0.43;0.33;;;3.30;99.90;;;;;;5238206;27;20249;-61
2024/04/21 06:02:15;;;;;;;1.03;0.43;;;3.40;99.90;;;;;;5238580;27;20234;-62
2024/04/21 06:04:41;;;;;;;0.27;0.27;;;3.50;99.90;;;;;;5238446;27;20276;-61
2024/04/21 06:07:06;;;;;;;0.80;0.80;;;3.50;99.90;;;;;;5238247;27;20249;-62
2024/04/21 06:09:34;;;;;;;0.60;0.60;;;3.60;99.90;;;;;;5238255;27;20323;-62
2024/04/21 06:12:01;;;;;;;1.97;0.93;;;3.70;99.90;;;;;;5237485;27;20230;-62
2024/04/21 06:14:27;;;;;;;1.60;1.03;;;3.60;99.90;;;;;;5238412;27;20348;-62
2024/04/21 06:16:52;;;;;;;0.60;0.57;;;3.70;99.90;;;;;;5238572;27;20242;-62
2024/04/21 06:19:18;;;;;;;0.53;0.33;;;3.70;99.90;;;;;;5238046;27;20292;-62
2024/04/21 06:21:43;;;;;;;0.80;0.70;;;3.80;99.90;;;;;;5237511;27;20671;-62
2024/04/21 06:24:09;;;;;;;0.40;0.30;;;3.80;99.90;;;;;;5226307;27;20239;-61
2024/04/21 06:26:34;;;;;;;0.60;0.40;;;3.90;99.90;;;;;;5228037;27;20718;-62
2024/04/21 06:29:00;;;;;;;2.97;0.50;;;3.90;99.90;;;;;;5226054;27;20286;-62
2024/04/21 06:31:25;;;;;;;0.30;0.30;;;4.00;99.90;;;;;;5241328;27;20280;-62
2024/04/21 06:33:51;;;;;;;0.60;0.43;;;3.90;99.90;;;;;;5227772;27;20297;-62
2024/04/21 06:36:17;;;;;;;4.93;0.70;;;3.90;99.90;;;;;;5231816;27;20336;-62
2024/04/21 06:38:42;;;;;;;0.20;0.20;;;3.90;99.90;;;;;;5224526;27;20327;-62
2024/04/21 06:41:08;;;;;;;0.53;0.50;;;3.90;99.90;;;;;;5226422;27;20242;-60
2024/04/21 06:43:34;;;;;;;0.50;0.50;;;3.90;99.90;;;;;;5230128;27;20234;-62
2024/04/21 06:45:59;;;;;;;1.10;0.73;;;3.90;99.90;;;;;;5213761;27;20281;-60
2024/04/21 06:48:25;;;;;;;0.43;0.30;;;3.90;99.90;;;;;;5241281;27;20420;-63
2024/04/21 06:50:50;;;;;;;0.70;0.70;;;3.90;99.90;;;;;;5240850;27;20264;-61
2024/04/21 06:53:17;;;;;;;0.27;0.27;;;4.00;99.90;;;;;;5239292;27;20242;-62
2024/04/21 06:55:42;;;;;;;0.80;0.40;;;4.00;99.90;;;;;;5240936;27;20245;-62
2024/04/21 06:58:08;;;;;;;0.30;0.30;;;4.00;99.90;;;;;;5240988;27;20361;-62
2024/04/21 07:00:34;;;;;;;2.63;0.50;;;4.00;99.90;;;;;;5238906;27;20285;-61
2024/04/21 07:03:00;;;;;;;0.40;0.33;;;3.90;99.90;;;;;;5240944;27;20233;-63
2024/04/21 07:05:25;;;;;;;0.30;0.30;;;4.00;99.90;;;;;;5241115;27;20284;-62
2024/04/21 07:07:51;;;;;;;0.53;0.47;;;4.10;99.90;;;;;;5240610;27;20234;-62
2024/04/21 07:10:16;;;;;;;3.77;0.80;;;4.00;99.90;;;;;;5238711;27;20337;-62
2024/04/21 07:12:42;;;;;;;0.57;0.57;;;4.10;99.90;;;;;;5241120;27;20317;-62
2024/04/21 07:15:08;;;;;;;0.43;0.40;;;4.10;99.90;;;;;;5241045;27;20709;-61
2024/04/21 07:17:33;;;;;;;0.20;0.20;;;4.10;99.90;;;;;;5240897;27;20284;-62
2024/04/21 07:20:00;;;;;;;0.93;0.60;;;4.20;99.90;;;;;;5240083;27;20257;-62
2024/04/21 07:22:25;;;;;;;4.90;1.27;;;4.30;99.90;;;;;;5227596;27;20289;-62
2024/04/21 07:24:51;;;;;;;1.03;0.63;;;4.30;99.90;;;;;;5241064;27;20784;-62
2024/04/21 07:27:16;;;;;;;0.30;0.30;;;4.40;99.90;;;;;;5240528;27;20234;-62
2024/04/21 07:29:42;;;;;;;0.20;0.20;;;4.30;99.90;;;;;;5240689;27;20372;-62
2024/04/21 07:32:08;;;;;;;0.37;0.37;;;4.20;99.90;;;;;;5239951;27;20344;-62
2024/04/21 07:34:33;;;;;;;0.20;0.20;;;4.10;99.90;;;;;;5239928;27;20589;-60
2024/04/21 07:36:59;;;;;;;0.33;0.33;;;3.90;99.90;;;;;;5240960;27;20631;-60
2024/04/21 07:39:27;;;;;;;0.30;0.30;;;3.80;99.90;;;;;;5226966;27;20281;-63
2024/04/21 07:41:53;;;;;;;1.47;0.50;;;3.80;99.90;;;;;;5240180;27;20347;-61
2024/04/21 07:44:18;;;;;;;0.47;0.47;;;3.90;99.90;;;;;;5240875;27;20242;-63
2024/04/21 07:46:44;;;;;;;0.20;0.20;;;3.90;99.90;;;;;;5239518;27;20275;-62
2024/04/21 07:49:10;;;;;;;1.07;0.60;;;3.90;99.90;;;;;;5240186;27;20230;-61
2024/04/21 07:51:35;;;;;;;0.60;0.40;;;4.00;99.90;;;;;;5231559;27;20893;-62
2024/04/21 07:54:01;;;;;;;0.43;0.43;;;4.00;99.90;;;;;;5234501;27;20730;-62
2024/04/21 07:56:26;;;;;;;0.60;0.60;;;3.90;99.90;;;;;;5240161;27;20722;-61
2024/04/21 07:58:52;;;;;;;0.40;0.40;;;3.90;99.90;;;;;;5212399;27;20696;-63
2024/04/21 08:01:18;;;;;;;0.47;0.47;;;3.90;99.90;;;;;;5238100;27;20250;-63
2024/04/21 08:03:43;;;;;;;2.00;1.70;;;4.00;99.90;;;;;;5240166;27;20238;-61
2024/04/21 08:06:09;;;;;;;0.30;0.30;;;4.00;99.90;;;;;;5239955;27;20242;-63
2024/04/21 08:08:34;;;;;;;0.37;0.33;;;3.90;99.90;;;;;;5240203;27;20261;-63
2024/04/21 08:11:04;;;;;;;0.50;0.50;;;3.90;99.90;;;;;;5239491;27;20649;-64
2024/04/21 08:13:29;;;;;;;2.03;1.10;;;4.10;99.90;;;;;;5240362;27;20277;-61
2024/04/21 08:15:57;;;;;;;0.33;0.33;;;4.30;99.90;;;;;;5240566;27;20234;-63
2024/04/21 08:18:23;;;;;;;0.20;0.20;;;4.20;99.90;;;;;;5232826;27;20349;-59
2024/04/21 08:20:49;;;;;;;1.83;0.47;;;4.40;99.90;;;;;;5231030;27;20741;-64
2024/04/21 08:23:16;;;;;;;0.37;0.37;;;4.80;99.90;;;;;;5236839;27;20730;-63
2024/04/21 08:25:44;;;;;;;0.80;0.70;;;5.20;99.90;;;;;;5230797;27;20234;-62
2024/04/21 08:28:09;;;;;;;1.23;0.60;;;5.90;99.90;;;;;;5239579;27;20744;-61
2024/04/21 08:30:35;;;;;;;0.70;0.70;;;6.10;99.90;;;;;;5239685;27;20284;-62
2024/04/21 08:33:00;;;;;;;1.23;0.53;;;6.30;99.90;;;;;;5239811;27;20229;-64
2024/04/21 08:35:26;;;;;;;1.03;0.50;;;6.60;99.90;;;;;;5239849;27;20280;-63
2024/04/21 08:37:52;;;;;;;0.70;0.60;;;6.70;99.90;;;;;;5214566;27;20594;-63
2024/04/21 08:40:17;;;;;;;3.00;0.60;;;6.70;99.90;;;;;;5237572;27;20238;-63
2024/04/21 08:42:44;;;;;;;0.77;0.77;;;6.80;99.90;;;;;;5240102;27;20419;-62
2024/04/21 08:45:09;;;;;;;0.53;0.40;;;6.80;99.90;;;;;;5225813;27;20756;-63
2024/04/21 08:47:35;;;;;;;2.00;1.13;;;7.10;99.90;;;;;;5238309;27;20249;-63
2024/04/21 08:50:02;;;;;;;1.37;0.70;;;7.10;99.90;;;;;;5239047;27;20785;-63
2024/04/21 08:52:33;;;;;;;1.33;0.80;;;7.10;99.90;;;;;;5239561;27;20419;-63
2024/04/21 08:54:59;;;;;;;4.30;1.30;;;7.30;99.90;;;;;;5239130;27;20569;-62
2024/04/21 08:57:26;;;;;;;1.03;0.63;;;7.40;99.90;;;;;;5226053;27;20685;-63
2024/04/21 08:59:57;;;;;;;1.43;1.07;;;7.20;99.90;;;;;;5265025;27;20574;-61
2024/04/21 09:02:23;;;;;;;1.50;0.90;;;7.50;99.90;;;;;;5239537;27;20305;-63
2024/04/21 09:04:49;;;;;;;2.27;0.87;;;7.80;99.90;;;;;;5239442;27;20237;-64
2024/04/21 09:07:16;;;;;;;2.00;0.90;;;8.00;99.90;;;;;;5235934;27;20261;-62
2024/04/21 09:09:45;;;;;;;1.20;0.77;;;8.00;99.90;;;;;;5219886;27;20239;-63
2024/04/21 09:12:12;;;;;;;2.10;1.00;;;8.30;99.90;;;;;;5219417;27;20277;-63
2024/04/21 09:14:46;;;;;;;1.10;0.80;;;8.20;99.90;;;;;;5228447;27;20280;-63
2024/04/21 09:17:12;;;;;;;1.67;1.03;;;8.20;99.90;;;;;;5225353;27;20272;-62
2024/04/21 09:19:38;;;;;;;1.40;1.03;;;8.30;99.90;;;;;;5238729;27;20257;-63
2024/04/21 09:22:05;;;;;;;1.53;0.87;;;8.00;99.90;;;;;;5238514;27;20242;-62
2024/04/21 09:24:30;;;;;;;1.67;1.20;;;7.90;99.90;;;;;;5239119;27;20245;-63
2024/04/21 09:26:57;;;;;;;1.40;0.87;;;7.90;99.90;;;;;;5239450;27;20343;-63
2024/04/21 09:29:22;;;;;;;2.13;1.33;;;7.60;99.90;;;;;;5238848;27;20309;-64
2024/04/21 09:31:48;;;;;;;2.47;1.33;;;7.50;99.90;;;;;;5227402;27;20291;-63
2024/04/21 09:34:14;;;;;;;0.70;0.70;;;8.00;99.90;;;;;;5235895;27;20734;-64
2024/04/21 09:36:40;;;;;;;1.20;0.80;;;9.00;99.90;;;;;;5239377;27;20589;-63
2024/04/21 09:39:06;;;;;;;1.67;1.17;;;9.30;99.90;;;;;;5238590;27;20246;-64
2024/04/21 09:41:37;;;;;;;2.10;1.13;;;9.40;99.90;;;;;;5238190;27;20417;-63
2024/04/21 09:44:02;;;;;;;1.40;0.90;;;9.00;99.90;;;;;;5239068;27;20233;-63
2024/04/21 09:46:30;;;;;;;2.10;1.57;;;8.80;99.90;;;;;;5225108;27;20581;-63
2024/04/21 09:48:56;;;;;;;2.13;1.40;;;8.60;99.90;;;;;;5236713;27;20237;-64
2024/04/21 09:51:23;;;;;;;2.03;1.20;;;8.40;99.90;;;;;;5238200;27;20238;-63
2024/04/21 09:53:50;;;;;;;1.60;1.10;;;7.80;99.90;;;;;;5238709;27;20287;-63
2024/04/21 09:56:20;;;;;;;0.87;0.77;;;7.50;99.90;;;;;;5221548;27;20842;-63
2024/04/21 09:58:52;;;;;;;1.17;0.77;;;7.30;99.90;;;;;;5231714;27;20280;-62
2024/04/21 10:01:32;;;;;;;4.37;1.73;;;7.50;99.90;;;;;;5241206;27;20284;-63
2024/04/21 10:04:01;;;;;;;1.03;0.93;;;8.50;99.90;;;;;;5241764;27;20775;-64
2024/04/21 10:06:29;;;;;;;1.67;0.90;;;9.50;99.90;;;;;;5241836;27;20233;-64
2024/04/21 10:09:00;;;;;;;3.30;1.53;;;10.60;99.90;;;;;;5242014;27;20394;-64
2024/04/21 10:11:26;;;;;;;3.07;1.47;;;11.40;99.90;;;;;;5227503;27;20237;-64
2024/04/21 10:13:53;;;;;;;1.80;1.00;;;11.90;99.90;;;;;;5226939;27;20293;-64
2024/04/21 10:16:19;;;;;;;2.67;0.93;;;12.20;99.90;;;;;;5229715;27;20337;-64
2024/04/21 10:18:45;;;;;;;1.77;0.90;;;12.40;99.90;;;;;;5227076;27;20241;-64
2024/04/21 10:21:11;;;;;;;1.37;0.90;;;12.00;99.90;;;;;;5233081;27;20825;-64
2024/04/21 10:23:39;;;;;;;1.50;0.80;;;11.50;99.90;;;;;;5230735;27;20328;-63
2024/04/21 10:26:04;;;;;;;3.37;1.23;;;11.00;99.90;;;;;;5241482;27;20241;-64
2024/04/21 10:28:30;;;;;;;1.57;0.97;;;10.20;99.90;;;;;;5225492;27;20280;-63
2024/04/21 10:31:06;;;;;;;2.03;1.00;;;9.70;99.90;;;;;;5222756;27;20243;-64
2024/04/21 10:33:32;;;;;;;1.10;0.70;;;9.40;99.90;;;;;;5218885;27;20245;-63
2024/04/21 10:35:58;;;;;;;3.57;1.30;;;9.10;99.90;;;;;;5218912;27;20618;-64
2024/04/21 10:38:24;;;;;;;1.17;0.73;;;9.20;99.90;;;;;;5221420;27;20340;-64
2024/04/21 10:40:49;;;;;;;1.00;0.77;;;9.70;99.90;;;;;;5215996;27;20297;-64
2024/04/21 10:43:16;;;;;;;0.80;0.77;;;10.00;99.90;;;;;;5217844;27;20285;-64
2024/04/21 10:45:42;;;;;;;1.60;0.87;;;9.90;99.90;;;;;;5214787;27;20344;-64
2024/04/21 10:48:09;;;;;;;1.33;1.00;;;9.60;99.90;;;;;;5229190;27;20234;-64
2024/04/21 10:50:39;;;;;;;1.43;1.03;;;9.40;99.90;;;;;;5241005;27;20781;-64
2024/04/21 10:53:09;;;;;;;1.83;1.17;;;9.20;99.90;;;;;;5241221;27;20730;-64
2024/04/21 10:55:35;;;;;;;1.90;1.30;;;8.90;99.90;;;;;;5241424;27;20234;-64
2024/04/21 10:58:02;;;;;;;1.87;1.10;;;8.70;99.90;;;;;;5241461;27;20237;-64
2024/04/21 11:00:28;;;;;;;2.43;1.00;;;8.60;99.90;;;;;;5240718;27;20300;-64
2024/04/21 11:02:54;;;;;;;0.73;0.60;;;8.70;99.90;;;;;;5227833;27;20345;-64
2024/04/21 11:05:26;;;;;;;5.57;1.60;;;8.30;99.90;;;;;;5241187;27;20584;-64
2024/04/21 11:07:51;;;;;;;2.70;1.20;;;8.20;99.90;;;;;;5240754;27;20229;-64
2024/04/21 11:10:17;;;;;;;1.97;1.03;;;8.40;99.90;;;;;;5239507;27;20637;-64
2024/04/21 11:12:43;;;;;;;1.10;0.67;;;8.40;99.90;;;;;;5241303;27;20710;-64
2024/04/21 11:15:09;;;;;;;2.27;1.20;;;8.40;99.90;;;;;;5227300;27;20277;-64
2024/04/21 11:17:35;;;;;;;0.80;0.70;;;8.50;99.90;;;;;;5225971;27;20237;-63
2024/04/21 11:20:00;;;;;;;3.20;1.30;;;8.70;99.90;;;;;;5240453;27;20730;-64
2024/04/21 11:22:26;;;;;;;2.20;1.10;;;8.90;99.90;;;;;;5241230;27;20279;-64
2024/04/21 11:24:53;;;;;;;1.33;0.83;;;9.10;99.90;;;;;;5229759;27;20294;-64
2024/04/21 11:27:18;;;;;;;1.33;0.70;;;9.20;99.90;;;;;;5225296;27;20611;-63
2024/04/21 11:29:47;;;;;;;2.60;1.30;;;9.50;99.90;;;;;;5241002;27;20305;-63
2024/04/21 11:32:12;;;;;;;1.40;0.90;;;9.60;99.90;;;;;;5240813;27;20330;-64
2024/04/21 11:34:38;;;;;;;4.03;0.67;;;9.60;99.90;;;;;;5240844;27;20229;-63
2024/04/21 11:37:05;;;;;;;1.10;0.60;;;9.50;99.90;;;;;;5241106;27;20237;-64
2024/04/21 11:39:30;;;;;;;1.40;0.70;;;9.40;99.90;;;;;;5241165;27;20360;-64
2024/04/21 11:41:56;;;;;;;1.53;0.87;;;9.20;99.90;;;;;;5227773;27;20251;-63
2024/04/21 11:44:21;;;;;;;1.73;0.87;;;9.10;99.90;;;;;;5239861;27;20754;-63
2024/04/21 11:46:51;;;;;;;1.53;0.90;;;9.00;99.90;;;;;;5240876;27;20758;-63
2024/04/21 11:49:16;;;;;;;1.73;0.90;;;8.60;99.90;;;;;;5226734;27;20576;-63
2024/04/21 11:51:42;;;;;;;1.37;1.10;;;8.40;99.90;;;;;;5231235;27;20285;-63
2024/04/21 11:54:08;;;;;;;2.77;1.23;;;8.50;99.90;;;;;;5236464;27;20234;-63
2024/04/21 11:56:33;;;;;;;1.23;1.13;;;8.70;99.90;;;;;;5233724;27;20714;-63
2024/04/21 11:58:59;;;;;;;1.00;0.90;;;8.70;99.90;;;;;;5234225;27;20245;-63
2024/04/21 12:01:25;;;;;;;1.37;1.00;;;8.90;99.90;;;;;;5234651;27;20290;-64
2024/04/21 12:03:50;;;;;;;1.20;0.83;;;9.00;99.90;;;;;;5232374;27;20734;-63
2024/04/21 12:06:16;;;;;;;1.27;1.00;;;9.00;99.90;;;;;;5240073;27;20284;-64
2024/04/21 12:08:41;;;;;;;1.27;0.90;;;9.10;99.90;;;;;;5240429;27;20352;-64
2024/04/21 12:11:10;;;;;;;2.80;1.47;;;9.20;99.90;;;;;;5239785;27;20780;-64
2024/04/21 12:13:37;;;;;;;1.33;1.10;;;9.30;99.90;;;;;;5240601;27;20249;-63
2024/04/21 12:16:02;;;;;;;1.20;0.90;;;9.20;99.90;;;;;;5240597;27;20241;-64
2024/04/21 12:18:28;;;;;;;1.33;0.90;;;9.40;99.90;;;;;;5227253;27;20306;-63
2024/04/21 12:20:54;;;;;;;1.17;0.87;;;9.40;99.90;;;;;;5232047;27;20300;-64
2024/04/21 12:23:19;;;;;;;1.77;1.10;;;9.40;99.90;;;;;;5240320;27;20296;-64
2024/04/21 12:25:45;;;;;;;2.93;1.00;;;9.40;99.90;;;;;;5240245;27;20249;-63
2024/04/21 12:28:11;;;;;;;1.20;0.83;;;9.40;99.90;;;;;;5238261;27;20245;-63
2024/04/21 12:30:36;;;;;;;2.57;1.40;;;9.30;99.90;;;;;;5227727;27;20237;-63
2024/04/21 12:33:02;;;;;;;1.30;0.80;;;9.50;99.90;;;;;;5213022;27;20719;-64
2024/04/21 12:35:28;;;;;;;1.10;0.70;;;9.50;99.90;;;;;;5226598;27;20242;-64
2024/04/21 12:37:53;;;;;;;1.20;0.60;;;9.40;99.90;;;;;;5240388;27;20284;-64
2024/04/21 12:40:19;;;;;;;1.20;0.93;;;9.40;99.90;;;;;;5234214;27;20577;-63
2024/04/21 12:42:44;;;;;;;1.33;0.93;;;9.40;99.90;;;;;;5230103;27;20301;-63
2024/04/21 12:45:10;;;;;;;3.63;1.40;;;9.60;99.90;;;;;;5240078;27;20344;-63
2024/04/21 12:47:36;;;;;;;1.50;1.00;;;9.70;99.90;;;;;;5240569;27;20237;-63
2024/04/21 12:50:04;;;;;;;1.70;0.90;;;9.80;99.90;;;;;;5239315;27;20284;-65
2024/04/21 12:52:30;;;;;;;0.83;0.67;;;9.60;99.90;;;;;;5226742;27;20732;-65